sensor_id;sensor_type;location;lat;lon;timestamp;P1;durP1;ratioP1;P2;durP2;ratioP2
62523;SDS011;53689;56.878;60.672;2022-07-17T00:00:35;9.90;;;6.93;;
62523;SDS011;53689;56.878;60.672;2022-07-17T00:03:03;10.20;;;6.85;;
62523;SDS011;53689;56.878;60.672;2022-07-17T00:05:32;10.85;;;7.10;;
62523;SDS011;53689;56.878;60.672;2022-07-17T00:08:00;9.57;;;6.82;;
62523;SDS011;53689;56.878;60.672;2022-07-17T00:10:27;10.88;;;7.40;;
62523;SDS011;53689;56.878;60.672;2022-07-17T00:12:55;18.05;;;9.13;;
62523;SDS011;53689;56.878;60.672;2022-07-17T00:15:23;14.73;;;8.45;;
62523;SDS011;53689;56.878;60.672;2022-07-17T00:17:50;15.02;;;9.40;;
62523;SDS011;53689;56.878;60.672;2022-07-17T00:20:17;15.43;;;10.75;;
62523;SDS011;53689;56.878;60.672;2022-07-17T00:22:46;15.25;;;10.50;;
62523;SDS011;53689;56.878;60.672;2022-07-17T00:25:14;16.60;;;10.73;;
62523;SDS011;53689;56.878;60.672;2022-07-17T00:27:41;15.13;;;10.43;;
62523;SDS011;53689;56.878;60.672;2022-07-17T00:30:09;16.50;;;9.15;;
62523;SDS011;53689;56.878;60.672;2022-07-17T00:32:37;14.75;;;8.65;;
62523;SDS011;53689;56.878;60.672;2022-07-17T00:35:05;13.75;;;9.05;;
62523;SDS011;53689;56.878;60.672;2022-07-17T00:37:37;14.15;;;8.10;;
62523;SDS011;53689;56.878;60.672;2022-07-17T00:40:07;11.13;;;7.93;;
62523;SDS011;53689;56.878;60.672;2022-07-17T00:42:38;10.48;;;8.18;;
62523;SDS011;53689;56.878;60.672;2022-07-17T00:45:06;12.00;;;7.47;;
62523;SDS011;53689;56.878;60.672;2022-07-17T00:47:34;14.40;;;8.40;;
62523;SDS011;53689;56.878;60.672;2022-07-17T00:50:17;14.98;;;9.38;;
62523;SDS011;53689;56.878;60.672;2022-07-17T00:52:45;11.07;;;8.02;;
62523;SDS011;53689;56.878;60.672;2022-07-17T00:55:14;14.73;;;8.30;;
62523;SDS011;53689;56.878;60.672;2022-07-17T00:58:04;11.80;;;7.90;;
62523;SDS011;53689;56.878;60.672;2022-07-17T01:00:31;13.98;;;8.57;;
62523;SDS011;53689;56.878;60.672;2022-07-17T01:02:59;14.15;;;7.90;;
62523;SDS011;53689;56.878;60.672;2022-07-17T01:05:27;16.45;;;7.65;;
62523;SDS011;53689;56.878;60.672;2022-07-17T01:07:54;12.45;;;7.40;;
62523;SDS011;53689;56.878;60.672;2022-07-17T01:10:24;12.38;;;7.43;;
62523;SDS011;53689;56.878;60.672;2022-07-17T01:12:51;12.95;;;6.90;;
62523;SDS011;53689;56.878;60.672;2022-07-17T01:15:19;14.68;;;8.18;;
62523;SDS011;53689;56.878;60.672;2022-07-17T01:17:47;15.43;;;8.25;;
62523;SDS011;53689;56.878;60.672;2022-07-17T01:20:15;11.73;;;7.47;;
62523;SDS011;53689;56.878;60.672;2022-07-17T01:22:44;13.50;;;7.93;;
62523;SDS011;53689;56.878;60.672;2022-07-17T01:25:15;18.00;;;8.38;;
62523;SDS011;53689;56.878;60.672;2022-07-17T01:27:45;20.75;;;8.73;;
62523;SDS011;53689;56.878;60.672;2022-07-17T01:30:12;16.88;;;8.40;;
62523;SDS011;53689;56.878;60.672;2022-07-17T01:32:41;14.75;;;8.45;;
62523;SDS011;53689;56.878;60.672;2022-07-17T01:35:09;18.38;;;8.05;;
62523;SDS011;53689;56.878;60.672;2022-07-17T01:40:08;12.32;;;7.82;;
62523;SDS011;53689;56.878;60.672;2022-07-17T01:42:37;13.45;;;7.43;;
62523;SDS011;53689;56.878;60.672;2022-07-17T01:45:04;13.90;;;7.45;;
62523;SDS011;53689;56.878;60.672;2022-07-17T01:47:33;9.52;;;7.43;;
62523;SDS011;53689;56.878;60.672;2022-07-17T01:50:00;9.82;;;6.88;;
62523;SDS011;53689;56.878;60.672;2022-07-17T01:52:28;10.63;;;7.10;;
62523;SDS011;53689;56.878;60.672;2022-07-17T01:54:56;9.25;;;6.55;;
62523;SDS011;53689;56.878;60.672;2022-07-17T01:57:25;13.35;;;6.57;;
62523;SDS011;53689;56.878;60.672;2022-07-17T01:59:53;11.68;;;7.15;;
62523;SDS011;53689;56.878;60.672;2022-07-17T02:02:20;11.73;;;7.00;;
62523;SDS011;53689;56.878;60.672;2022-07-17T02:04:48;11.95;;;6.80;;
62523;SDS011;53689;56.878;60.672;2022-07-17T02:07:15;10.88;;;7.15;;
62523;SDS011;53689;56.878;60.672;2022-07-17T02:09:43;9.50;;;7.13;;
62523;SDS011;53689;56.878;60.672;2022-07-17T02:12:10;10.70;;;6.90;;
62523;SDS011;53689;56.878;60.672;2022-07-17T02:14:39;11.02;;;6.70;;
62523;SDS011;53689;56.878;60.672;2022-07-17T02:17:06;11.32;;;6.95;;
62523;SDS011;53689;56.878;60.672;2022-07-17T02:19:34;15.13;;;7.93;;
62523;SDS011;53689;56.878;60.672;2022-07-17T02:22:01;12.15;;;7.43;;
62523;SDS011;53689;56.878;60.672;2022-07-17T02:24:29;12.23;;;7.78;;
62523;SDS011;53689;56.878;60.672;2022-07-17T02:26:57;14.25;;;7.85;;
62523;SDS011;53689;56.878;60.672;2022-07-17T02:29:25;10.38;;;7.22;;
62523;SDS011;53689;56.878;60.672;2022-07-17T02:31:54;13.82;;;7.80;;
62523;SDS011;53689;56.878;60.672;2022-07-17T02:34:21;14.98;;;7.50;;
62523;SDS011;53689;56.878;60.672;2022-07-17T02:36:48;11.40;;;7.25;;
62523;SDS011;53689;56.878;60.672;2022-07-17T02:39:16;12.75;;;7.57;;
62523;SDS011;53689;56.878;60.672;2022-07-17T02:41:44;14.82;;;8.07;;
62523;SDS011;53689;56.878;60.672;2022-07-17T02:44:11;19.58;;;13.02;;
62523;SDS011;53689;56.878;60.672;2022-07-17T02:46:38;17.35;;;10.77;;
62523;SDS011;53689;56.878;60.672;2022-07-17T02:49:07;17.38;;;9.68;;
62523;SDS011;53689;56.878;60.672;2022-07-17T02:51:35;14.85;;;8.98;;
62523;SDS011;53689;56.878;60.672;2022-07-17T02:54:03;12.07;;;7.35;;
62523;SDS011;53689;56.878;60.672;2022-07-17T02:56:31;7.75;;;6.65;;
62523;SDS011;53689;56.878;60.672;2022-07-17T02:58:58;7.80;;;6.93;;
62523;SDS011;53689;56.878;60.672;2022-07-17T03:01:26;10.00;;;6.35;;
62523;SDS011;53689;56.878;60.672;2022-07-17T03:03:54;8.68;;;6.38;;
62523;SDS011;53689;56.878;60.672;2022-07-17T03:06:23;6.55;;;5.68;;
62523;SDS011;53689;56.878;60.672;2022-07-17T03:08:50;7.47;;;5.90;;
62523;SDS011;53689;56.878;60.672;2022-07-17T03:11:17;7.65;;;5.93;;
62523;SDS011;53689;56.878;60.672;2022-07-17T03:13:45;8.00;;;6.10;;
62523;SDS011;53689;56.878;60.672;2022-07-17T03:16:13;9.75;;;6.10;;
62523;SDS011;53689;56.878;60.672;2022-07-17T03:18:41;8.90;;;5.53;;
62523;SDS011;53689;56.878;60.672;2022-07-17T03:21:08;10.13;;;6.35;;
62523;SDS011;53689;56.878;60.672;2022-07-17T03:23:37;10.55;;;6.85;;
62523;SDS011;53689;56.878;60.672;2022-07-17T03:26:05;11.18;;;7.22;;
62523;SDS011;53689;56.878;60.672;2022-07-17T03:28:32;10.32;;;8.07;;
62523;SDS011;53689;56.878;60.672;2022-07-17T03:31:00;15.57;;;10.65;;
62523;SDS011;53689;56.878;60.672;2022-07-17T03:33:28;15.80;;;9.88;;
62523;SDS011;53689;56.878;60.672;2022-07-17T03:35:55;12.02;;;8.40;;
62523;SDS011;53689;56.878;60.672;2022-07-17T03:38:23;13.38;;;8.70;;
62523;SDS011;53689;56.878;60.672;2022-07-17T03:40:52;13.07;;;8.52;;
62523;SDS011;53689;56.878;60.672;2022-07-17T03:43:19;12.90;;;8.07;;
62523;SDS011;53689;56.878;60.672;2022-07-17T03:45:46;10.05;;;8.00;;
62523;SDS011;53689;56.878;60.672;2022-07-17T03:48:14;13.38;;;8.00;;
62523;SDS011;53689;56.878;60.672;2022-07-17T03:50:42;11.30;;;7.32;;
62523;SDS011;53689;56.878;60.672;2022-07-17T03:53:09;11.80;;;7.70;;
62523;SDS011;53689;56.878;60.672;2022-07-17T03:55:37;9.52;;;7.65;;
62523;SDS011;53689;56.878;60.672;2022-07-17T03:58:06;13.88;;;9.25;;
62523;SDS011;53689;56.878;60.672;2022-07-17T04:00:33;17.20;;;9.05;;
62523;SDS011;53689;56.878;60.672;2022-07-17T04:03:01;11.50;;;8.77;;
62523;SDS011;53689;56.878;60.672;2022-07-17T04:05:28;13.10;;;8.80;;
62523;SDS011;53689;56.878;60.672;2022-07-17T04:07:56;14.07;;;9.30;;
62523;SDS011;53689;56.878;60.672;2022-07-17T04:10:23;14.13;;;8.60;;
62523;SDS011;53689;56.878;60.672;2022-07-17T04:12:51;15.15;;;8.93;;
62523;SDS011;53689;56.878;60.672;2022-07-17T04:15:20;16.30;;;9.00;;
62523;SDS011;53689;56.878;60.672;2022-07-17T04:17:47;15.68;;;8.60;;
62523;SDS011;53689;56.878;60.672;2022-07-17T04:20:14;15.20;;;8.85;;
62523;SDS011;53689;56.878;60.672;2022-07-17T04:22:42;11.45;;;8.25;;
62523;SDS011;53689;56.878;60.672;2022-07-17T04:25:09;17.90;;;9.35;;
62523;SDS011;53689;56.878;60.672;2022-07-17T04:27:37;13.27;;;8.38;;
62523;SDS011;53689;56.878;60.672;2022-07-17T04:30:06;13.23;;;8.68;;
62523;SDS011;53689;56.878;60.672;2022-07-17T04:32:35;15.60;;;9.52;;
62523;SDS011;53689;56.878;60.672;2022-07-17T04:35:03;13.68;;;8.43;;
62523;SDS011;53689;56.878;60.672;2022-07-17T04:37:31;16.60;;;9.35;;
62523;SDS011;53689;56.878;60.672;2022-07-17T04:39:58;16.90;;;12.27;;
62523;SDS011;53689;56.878;60.672;2022-07-17T04:42:26;17.33;;;11.75;;
62523;SDS011;53689;56.878;60.672;2022-07-17T04:44:53;16.77;;;10.65;;
62523;SDS011;53689;56.878;60.672;2022-07-17T04:47:20;15.35;;;9.65;;
62523;SDS011;53689;56.878;60.672;2022-07-17T04:49:49;15.10;;;9.80;;
62523;SDS011;53689;56.878;60.672;2022-07-17T04:52:17;16.25;;;11.00;;
62523;SDS011;53689;56.878;60.672;2022-07-17T04:54:44;16.67;;;9.98;;
62523;SDS011;53689;56.878;60.672;2022-07-17T04:57:12;17.98;;;9.40;;
62523;SDS011;53689;56.878;60.672;2022-07-17T04:59:39;16.33;;;10.00;;
62523;SDS011;53689;56.878;60.672;2022-07-17T05:02:06;17.15;;;9.70;;
62523;SDS011;53689;56.878;60.672;2022-07-17T05:04:34;15.80;;;9.90;;
62523;SDS011;53689;56.878;60.672;2022-07-17T05:07:03;16.42;;;10.00;;
62523;SDS011;53689;56.878;60.672;2022-07-17T05:09:30;21.08;;;10.88;;
62523;SDS011;53689;56.878;60.672;2022-07-17T05:11:58;20.70;;;9.95;;
62523;SDS011;53689;56.878;60.672;2022-07-17T05:14:25;16.10;;;9.20;;
62523;SDS011;53689;56.878;60.672;2022-07-17T05:16:53;19.33;;;13.77;;
62523;SDS011;53689;56.878;60.672;2022-07-17T05:19:20;19.55;;;12.70;;
62523;SDS011;53689;56.878;60.672;2022-07-17T05:21:48;20.00;;;12.00;;
62523;SDS011;53689;56.878;60.672;2022-07-17T05:24:17;21.10;;;11.65;;
62523;SDS011;53689;56.878;60.672;2022-07-17T05:26:44;14.13;;;9.80;;
62523;SDS011;53689;56.878;60.672;2022-07-17T05:29:12;16.70;;;10.10;;
62523;SDS011;53689;56.878;60.672;2022-07-17T05:31:39;16.55;;;9.65;;
62523;SDS011;53689;56.878;60.672;2022-07-17T05:34:07;13.23;;;9.25;;
62523;SDS011;53689;56.878;60.672;2022-07-17T05:36:34;13.90;;;9.07;;
62523;SDS011;53689;56.878;60.672;2022-07-17T05:39:02;13.18;;;8.48;;
62523;SDS011;53689;56.878;60.672;2022-07-17T05:41:31;15.95;;;8.73;;
62523;SDS011;53689;56.878;60.672;2022-07-17T05:43:58;16.20;;;9.18;;
62523;SDS011;53689;56.878;60.672;2022-07-17T05:46:26;15.07;;;9.02;;
62523;SDS011;53689;56.878;60.672;2022-07-17T05:48:53;15.77;;;8.68;;
62523;SDS011;53689;56.878;60.672;2022-07-17T05:51:21;14.88;;;8.20;;
62523;SDS011;53689;56.878;60.672;2022-07-17T05:53:51;13.48;;;8.45;;
62523;SDS011;53689;56.878;60.672;2022-07-17T05:56:18;14.95;;;8.38;;
62523;SDS011;53689;56.878;60.672;2022-07-17T05:58:47;15.40;;;8.77;;
62523;SDS011;53689;56.878;60.672;2022-07-17T06:01:14;15.35;;;8.75;;
62523;SDS011;53689;56.878;60.672;2022-07-17T06:03:42;19.83;;;9.38;;
62523;SDS011;53689;56.878;60.672;2022-07-17T06:06:09;14.10;;;8.68;;
62523;SDS011;53689;56.878;60.672;2022-07-17T06:08:37;12.77;;;8.90;;
62523;SDS011;53689;56.878;60.672;2022-07-17T06:11:04;12.75;;;8.60;;
62523;SDS011;53689;56.878;60.672;2022-07-17T06:13:33;13.98;;;8.32;;
62523;SDS011;53689;56.878;60.672;2022-07-17T06:16:02;16.00;;;9.23;;
62523;SDS011;53689;56.878;60.672;2022-07-17T06:18:30;15.73;;;7.95;;
62523;SDS011;53689;56.878;60.672;2022-07-17T06:20:58;13.18;;;8.02;;
62523;SDS011;53689;56.878;60.672;2022-07-17T06:23:25;18.25;;;8.88;;
62523;SDS011;53689;56.878;60.672;2022-07-17T06:25:52;16.77;;;9.23;;
62523;SDS011;53689;56.878;60.672;2022-07-17T06:28:20;16.45;;;8.98;;
62523;SDS011;53689;56.878;60.672;2022-07-17T06:30:47;16.52;;;8.60;;
62523;SDS011;53689;56.878;60.672;2022-07-17T06:33:16;14.65;;;8.48;;
62523;SDS011;53689;56.878;60.672;2022-07-17T06:35:44;13.82;;;8.65;;
62523;SDS011;53689;56.878;60.672;2022-07-17T06:38:11;14.75;;;8.30;;
62523;SDS011;53689;56.878;60.672;2022-07-17T06:40:39;15.02;;;8.73;;
62523;SDS011;53689;56.878;60.672;2022-07-17T06:43:06;15.40;;;8.63;;
62523;SDS011;53689;56.878;60.672;2022-07-17T06:45:34;11.32;;;7.82;;
62523;SDS011;53689;56.878;60.672;2022-07-17T06:48:01;16.13;;;8.98;;
62523;SDS011;53689;56.878;60.672;2022-07-17T06:50:31;14.98;;;8.85;;
62523;SDS011;53689;56.878;60.672;2022-07-17T06:52:58;16.65;;;8.75;;
62523;SDS011;53689;56.878;60.672;2022-07-17T06:55:26;14.95;;;8.85;;
62523;SDS011;53689;56.878;60.672;2022-07-17T06:57:53;15.80;;;8.98;;
62523;SDS011;53689;56.878;60.672;2022-07-17T07:00:21;14.07;;;8.57;;
62523;SDS011;53689;56.878;60.672;2022-07-17T07:02:48;15.55;;;8.30;;
62523;SDS011;53689;56.878;60.672;2022-07-17T07:05:15;14.10;;;9.07;;
62523;SDS011;53689;56.878;60.672;2022-07-17T07:07:44;22.75;;;9.98;;
62523;SDS011;53689;56.878;60.672;2022-07-17T07:10:12;19.48;;;9.20;;
62523;SDS011;53689;56.878;60.672;2022-07-17T07:12:39;16.92;;;8.85;;
62523;SDS011;53689;56.878;60.672;2022-07-17T07:15:07;16.70;;;8.95;;
62523;SDS011;53689;56.878;60.672;2022-07-17T07:17:38;11.77;;;8.10;;
62523;SDS011;53689;56.878;60.672;2022-07-17T07:20:07;15.60;;;8.48;;
62523;SDS011;53689;56.878;60.672;2022-07-17T07:22:35;16.40;;;7.55;;
62523;SDS011;53689;56.878;60.672;2022-07-17T07:25:05;12.52;;;8.05;;
62523;SDS011;53689;56.878;60.672;2022-07-17T07:27:33;13.88;;;8.23;;
62523;SDS011;53689;56.878;60.672;2022-07-17T07:30:01;15.07;;;7.88;;
62523;SDS011;53689;56.878;60.672;2022-07-17T07:32:28;14.40;;;8.48;;
62523;SDS011;53689;56.878;60.672;2022-07-17T07:34:55;13.43;;;7.38;;
62523;SDS011;53689;56.878;60.672;2022-07-17T07:37:23;13.23;;;7.30;;
62523;SDS011;53689;56.878;60.672;2022-07-17T07:39:50;11.00;;;7.15;;
62523;SDS011;53689;56.878;60.672;2022-07-17T07:42:19;14.05;;;7.43;;
62523;SDS011;53689;56.878;60.672;2022-07-17T07:44:47;14.15;;;7.88;;
62523;SDS011;53689;56.878;60.672;2022-07-17T07:47:14;12.52;;;7.03;;
62523;SDS011;53689;56.878;60.672;2022-07-17T07:49:42;13.40;;;7.13;;
62523;SDS011;53689;56.878;60.672;2022-07-17T07:52:09;14.07;;;7.43;;
62523;SDS011;53689;56.878;60.672;2022-07-17T07:54:37;11.50;;;6.80;;
62523;SDS011;53689;56.878;60.672;2022-07-17T07:57:05;12.05;;;7.05;;
62523;SDS011;53689;56.878;60.672;2022-07-17T07:59:34;13.60;;;7.30;;
62523;SDS011;53689;56.878;60.672;2022-07-17T08:02:01;12.15;;;6.97;;
62523;SDS011;53689;56.878;60.672;2022-07-17T08:04:29;15.90;;;7.45;;
62523;SDS011;53689;56.878;60.672;2022-07-17T08:06:57;16.65;;;8.23;;
62523;SDS011;53689;56.878;60.672;2022-07-17T08:09:24;12.90;;;7.90;;
62523;SDS011;53689;56.878;60.672;2022-07-17T08:11:52;13.85;;;7.70;;
62523;SDS011;53689;56.878;60.672;2022-07-17T08:14:19;14.25;;;7.72;;
62523;SDS011;53689;56.878;60.672;2022-07-17T08:16:48;15.73;;;7.45;;
62523;SDS011;53689;56.878;60.672;2022-07-17T08:19:16;14.57;;;8.07;;
62523;SDS011;53689;56.878;60.672;2022-07-17T08:21:44;21.17;;;9.15;;
62523;SDS011;53689;56.878;60.672;2022-07-17T08:24:11;13.65;;;8.07;;
62523;SDS011;53689;56.878;60.672;2022-07-17T08:26:39;15.52;;;8.82;;
62523;SDS011;53689;56.878;60.672;2022-07-17T08:29:06;15.82;;;8.38;;
62523;SDS011;53689;56.878;60.672;2022-07-17T08:31:34;14.77;;;8.80;;
62523;SDS011;53689;56.878;60.672;2022-07-17T08:34:03;12.93;;;8.43;;
62523;SDS011;53689;56.878;60.672;2022-07-17T08:36:31;15.02;;;8.73;;
62523;SDS011;53689;56.878;60.672;2022-07-17T08:38:58;14.82;;;7.13;;
62523;SDS011;53689;56.878;60.672;2022-07-17T08:41:26;13.30;;;7.70;;
62523;SDS011;53689;56.878;60.672;2022-07-17T08:43:56;13.27;;;8.30;;
62523;SDS011;53689;56.878;60.672;2022-07-17T08:46:24;11.30;;;7.35;;
62523;SDS011;53689;56.878;60.672;2022-07-17T08:48:52;13.13;;;7.43;;
62523;SDS011;53689;56.878;60.672;2022-07-17T08:51:25;11.40;;;6.97;;
62523;SDS011;53689;56.878;60.672;2022-07-17T08:53:54;12.82;;;6.72;;
62523;SDS011;53689;56.878;60.672;2022-07-17T08:56:24;12.13;;;7.00;;
62523;SDS011;53689;56.878;60.672;2022-07-17T08:58:53;10.53;;;6.50;;
62523;SDS011;53689;56.878;60.672;2022-07-17T09:01:21;9.90;;;6.38;;
62523;SDS011;53689;56.878;60.672;2022-07-17T09:03:56;10.32;;;6.40;;
62523;SDS011;53689;56.878;60.672;2022-07-17T09:06:26;9.32;;;6.15;;
62523;SDS011;53689;56.878;60.672;2022-07-17T09:11:29;9.43;;;6.03;;
62523;SDS011;53689;56.878;60.672;2022-07-17T09:14:07;9.55;;;6.25;;
62523;SDS011;53689;56.878;60.672;2022-07-17T09:16:35;9.40;;;5.85;;
62523;SDS011;53689;56.878;60.672;2022-07-17T09:19:02;9.68;;;5.90;;
62523;SDS011;53689;56.878;60.672;2022-07-17T09:21:31;9.18;;;5.10;;
62523;SDS011;53689;56.878;60.672;2022-07-17T09:23:59;11.43;;;4.95;;
62523;SDS011;53689;56.878;60.672;2022-07-17T09:26:27;11.67;;;5.87;;
62523;SDS011;53689;56.878;60.672;2022-07-17T09:28:56;10.00;;;5.67;;
62523;SDS011;53689;56.878;60.672;2022-07-17T09:31:24;7.63;;;4.82;;
62523;SDS011;53689;56.878;60.672;2022-07-17T09:33:53;10.15;;;6.05;;
62523;SDS011;53689;56.878;60.672;2022-07-17T09:36:22;9.07;;;5.75;;
62523;SDS011;53689;56.878;60.672;2022-07-17T09:38:53;9.00;;;5.90;;
62523;SDS011;53689;56.878;60.672;2022-07-17T09:41:22;9.93;;;5.55;;
62523;SDS011;53689;56.878;60.672;2022-07-17T09:43:51;9.00;;;5.25;;
62523;SDS011;53689;56.878;60.672;2022-07-17T09:46:21;10.35;;;5.50;;
62523;SDS011;53689;56.878;60.672;2022-07-17T09:48:50;9.93;;;5.78;;
62523;SDS011;53689;56.878;60.672;2022-07-17T09:51:23;8.82;;;5.32;;
62523;SDS011;53689;56.878;60.672;2022-07-17T09:53:53;8.48;;;5.70;;
62523;SDS011;53689;56.878;60.672;2022-07-17T09:56:22;8.77;;;5.82;;
62523;SDS011;53689;56.878;60.672;2022-07-17T09:58:51;11.10;;;5.97;;
62523;SDS011;53689;56.878;60.672;2022-07-17T10:01:20;10.70;;;6.03;;
62523;SDS011;53689;56.878;60.672;2022-07-17T10:03:49;12.25;;;6.60;;
62523;SDS011;53689;56.878;60.672;2022-07-17T10:06:17;10.73;;;6.93;;
62523;SDS011;53689;56.878;60.672;2022-07-17T10:08:45;13.68;;;7.05;;
62523;SDS011;53689;56.878;60.672;2022-07-17T10:11:14;14.25;;;8.90;;
62523;SDS011;53689;56.878;60.672;2022-07-17T10:13:43;14.85;;;9.50;;
62523;SDS011;53689;56.878;60.672;2022-07-17T10:18:40;14.52;;;8.52;;
62523;SDS011;53689;56.878;60.672;2022-07-17T10:21:12;13.80;;;8.02;;
62523;SDS011;53689;56.878;60.672;2022-07-17T10:23:42;18.42;;;7.68;;
62523;SDS011;53689;56.878;60.672;2022-07-17T10:26:14;19.60;;;8.10;;
62523;SDS011;53689;56.878;60.672;2022-07-17T10:28:43;15.40;;;6.85;;
62523;SDS011;53689;56.878;60.672;2022-07-17T10:31:22;12.40;;;7.13;;
62523;SDS011;53689;56.878;60.672;2022-07-17T10:33:57;12.85;;;6.80;;
62523;SDS011;53689;56.878;60.672;2022-07-17T10:36:32;12.95;;;7.10;;
62523;SDS011;53689;56.878;60.672;2022-07-17T10:39:11;12.93;;;6.70;;
62523;SDS011;53689;56.878;60.672;2022-07-17T10:41:41;10.70;;;5.82;;
62523;SDS011;53689;56.878;60.672;2022-07-17T10:44:09;11.25;;;6.80;;
62523;SDS011;53689;56.878;60.672;2022-07-17T10:46:37;13.07;;;6.93;;
62523;SDS011;53689;56.878;60.672;2022-07-17T10:49:04;16.35;;;7.32;;
62523;SDS011;53689;56.878;60.672;2022-07-17T10:51:32;12.30;;;7.05;;
62523;SDS011;53689;56.878;60.672;2022-07-17T10:53:59;12.23;;;6.75;;
62523;SDS011;53689;56.878;60.672;2022-07-17T10:56:27;11.20;;;7.00;;
62523;SDS011;53689;56.878;60.672;2022-07-17T10:59:02;13.80;;;6.90;;
62523;SDS011;53689;56.878;60.672;2022-07-17T11:01:29;11.35;;;6.63;;
62523;SDS011;53689;56.878;60.672;2022-07-17T11:03:57;13.63;;;6.85;;
62523;SDS011;53689;56.878;60.672;2022-07-17T11:06:30;13.35;;;7.35;;
62523;SDS011;53689;56.878;60.672;2022-07-17T11:08:59;11.77;;;7.05;;
62523;SDS011;53689;56.878;60.672;2022-07-17T11:11:38;14.55;;;7.30;;
62523;SDS011;53689;56.878;60.672;2022-07-17T11:14:09;8.85;;;6.05;;
62523;SDS011;53689;56.878;60.672;2022-07-17T11:16:42;10.45;;;6.78;;
62523;SDS011;53689;56.878;60.672;2022-07-17T11:19:11;12.50;;;6.78;;
62523;SDS011;53689;56.878;60.672;2022-07-17T11:21:46;13.85;;;7.35;;
62523;SDS011;53689;56.878;60.672;2022-07-17T11:24:15;14.35;;;7.68;;
62523;SDS011;53689;56.878;60.672;2022-07-17T11:26:43;11.50;;;7.28;;
62523;SDS011;53689;56.878;60.672;2022-07-17T11:29:12;12.90;;;7.50;;
62523;SDS011;53689;56.878;60.672;2022-07-17T11:31:40;15.25;;;7.32;;
62523;SDS011;53689;56.878;60.672;2022-07-17T11:34:08;16.92;;;8.00;;
62523;SDS011;53689;56.878;60.672;2022-07-17T11:36:37;15.60;;;7.63;;
62523;SDS011;53689;56.878;60.672;2022-07-17T11:39:06;13.50;;;7.43;;
62523;SDS011;53689;56.878;60.672;2022-07-17T11:41:35;13.40;;;7.03;;
62523;SDS011;53689;56.878;60.672;2022-07-17T11:44:04;10.55;;;6.70;;
62523;SDS011;53689;56.878;60.672;2022-07-17T11:49:02;13.68;;;7.22;;
62523;SDS011;53689;56.878;60.672;2022-07-17T11:51:37;10.43;;;7.22;;
62523;SDS011;53689;56.878;60.672;2022-07-17T11:54:07;16.58;;;7.88;;
62523;SDS011;53689;56.878;60.672;2022-07-17T11:56:35;15.70;;;8.68;;
62523;SDS011;53689;56.878;60.672;2022-07-17T11:59:04;14.98;;;8.18;;
62523;SDS011;53689;56.878;60.672;2022-07-17T12:01:41;32.55;;;8.75;;
62523;SDS011;53689;56.878;60.672;2022-07-17T12:04:11;22.42;;;8.50;;
62523;SDS011;53689;56.878;60.672;2022-07-17T12:06:43;19.00;;;7.63;;
62523;SDS011;53689;56.878;60.672;2022-07-17T12:09:11;14.07;;;7.15;;
62523;SDS011;53689;56.878;60.672;2022-07-17T12:11:46;18.38;;;7.05;;
62523;SDS011;53689;56.878;60.672;2022-07-17T12:14:14;17.40;;;7.90;;
62523;SDS011;53689;56.878;60.672;2022-07-17T12:16:43;19.40;;;7.80;;
62523;SDS011;53689;56.878;60.672;2022-07-17T12:21:47;16.70;;;8.30;;
62523;SDS011;53689;56.878;60.672;2022-07-17T12:24:19;17.60;;;8.13;;
62523;SDS011;53689;56.878;60.672;2022-07-17T12:26:48;18.15;;;9.05;;
62523;SDS011;53689;56.878;60.672;2022-07-17T12:29:16;15.75;;;8.90;;
62523;SDS011;53689;56.878;60.672;2022-07-17T12:31:45;15.75;;;8.90;;
62523;SDS011;53689;56.878;60.672;2022-07-17T12:34:13;17.83;;;8.77;;
62523;SDS011;53689;56.878;60.672;2022-07-17T12:36:40;18.67;;;8.73;;
62523;SDS011;53689;56.878;60.672;2022-07-17T12:39:08;14.20;;;8.32;;
62523;SDS011;53689;56.878;60.672;2022-07-17T12:41:36;16.35;;;8.30;;
62523;SDS011;53689;56.878;60.672;2022-07-17T12:44:04;19.20;;;8.85;;
62523;SDS011;53689;56.878;60.672;2022-07-17T12:46:31;16.95;;;9.10;;
62523;SDS011;53689;56.878;60.672;2022-07-17T12:49:01;15.50;;;8.80;;
62523;SDS011;53689;56.878;60.672;2022-07-17T12:51:30;15.20;;;9.45;;
62523;SDS011;53689;56.878;60.672;2022-07-17T12:53:58;14.23;;;8.20;;
62523;SDS011;53689;56.878;60.672;2022-07-17T12:56:25;12.88;;;8.85;;
62523;SDS011;53689;56.878;60.672;2022-07-17T12:58:53;12.80;;;8.77;;
62523;SDS011;53689;56.878;60.672;2022-07-17T13:01:27;14.82;;;8.55;;
62523;SDS011;53689;56.878;60.672;2022-07-17T13:03:55;18.15;;;11.55;;
62523;SDS011;53689;56.878;60.672;2022-07-17T13:06:25;16.75;;;11.35;;
62523;SDS011;53689;56.878;60.672;2022-07-17T13:08:53;15.05;;;10.75;;
62523;SDS011;53689;56.878;60.672;2022-07-17T13:11:21;15.25;;;10.00;;
62523;SDS011;53689;56.878;60.672;2022-07-17T13:13:48;18.42;;;10.50;;
62523;SDS011;53689;56.878;60.672;2022-07-17T13:16:16;21.98;;;11.02;;
62523;SDS011;53689;56.878;60.672;2022-07-17T13:18:44;16.83;;;10.00;;
62523;SDS011;53689;56.878;60.672;2022-07-17T13:21:12;15.87;;;10.00;;
62523;SDS011;53689;56.878;60.672;2022-07-17T13:23:42;18.80;;;10.00;;
62523;SDS011;53689;56.878;60.672;2022-07-17T13:26:09;16.35;;;9.32;;
62523;SDS011;53689;56.878;60.672;2022-07-17T13:28:44;15.63;;;8.93;;
62523;SDS011;53689;56.878;60.672;2022-07-17T13:31:12;14.82;;;9.10;;
62523;SDS011;53689;56.878;60.672;2022-07-17T13:33:40;15.45;;;9.10;;
62523;SDS011;53689;56.878;60.672;2022-07-17T13:36:08;16.02;;;8.82;;
62523;SDS011;53689;56.878;60.672;2022-07-17T13:38:35;13.27;;;9.05;;
62523;SDS011;53689;56.878;60.672;2022-07-17T13:41:04;14.70;;;8.82;;
62523;SDS011;53689;56.878;60.672;2022-07-17T13:43:32;16.30;;;8.50;;
62523;SDS011;53689;56.878;60.672;2022-07-17T13:46:01;11.57;;;8.40;;
62523;SDS011;53689;56.878;60.672;2022-07-17T13:48:28;13.95;;;8.30;;
62523;SDS011;53689;56.878;60.672;2022-07-17T13:50:56;14.52;;;8.68;;
62523;SDS011;53689;56.878;60.672;2022-07-17T13:53:24;13.75;;;8.77;;
62523;SDS011;53689;56.878;60.672;2022-07-17T13:55:51;11.93;;;8.38;;
62523;SDS011;53689;56.878;60.672;2022-07-17T13:58:21;15.10;;;8.35;;
62523;SDS011;53689;56.878;60.672;2022-07-17T14:00:48;12.85;;;8.40;;
62523;SDS011;53689;56.878;60.672;2022-07-17T14:03:16;15.52;;;8.40;;
62523;SDS011;53689;56.878;60.672;2022-07-17T14:05:44;13.43;;;8.20;;
62523;SDS011;53689;56.878;60.672;2022-07-17T14:08:12;17.80;;;8.80;;
62523;SDS011;53689;56.878;60.672;2022-07-17T14:10:40;13.60;;;8.38;;
62523;SDS011;53689;56.878;60.672;2022-07-17T14:13:08;12.90;;;8.45;;
62523;SDS011;53689;56.878;60.672;2022-07-17T14:15:37;14.13;;;8.45;;
62523;SDS011;53689;56.878;60.672;2022-07-17T14:18:05;15.02;;;8.65;;
62523;SDS011;53689;56.878;60.672;2022-07-17T14:20:33;14.80;;;8.80;;
62523;SDS011;53689;56.878;60.672;2022-07-17T14:23:00;12.65;;;7.70;;
62523;SDS011;53689;56.878;60.672;2022-07-17T14:25:28;11.40;;;7.97;;
62523;SDS011;53689;56.878;60.672;2022-07-17T14:27:56;12.20;;;7.93;;
62523;SDS011;53689;56.878;60.672;2022-07-17T14:30:24;15.18;;;8.00;;
62523;SDS011;53689;56.878;60.672;2022-07-17T14:32:54;13.20;;;7.55;;
62523;SDS011;53689;56.878;60.672;2022-07-17T14:35:22;14.50;;;8.02;;
62523;SDS011;53689;56.878;60.672;2022-07-17T14:37:49;9.65;;;7.05;;
62523;SDS011;53689;56.878;60.672;2022-07-17T14:40:17;13.00;;;7.55;;